Time;durP1;ratioP1;P1;durP2;ratioP2;P2;SDS_P1;SDS_P2;PMS_P1;PMS_P2;Temp;Humidity;BMP_temperature;BMP_pressure;BME280_temperature;BME280_humidity;BME280_pressure;Samples;Min_cycle;Max_cycle;Signal;HPM_P1;HPM_P2
2021/06/14 00:01:09;;;;;;;16.90;6.30;;;;;;;11.72;59.94;99186.13;5096159;28;20032;-82
2021/06/14 00:03:35;;;;;;;17.98;5.95;;;;;;;11.74;60.36;99180.34;5095555;28;20058;-83
2021/06/14 00:06:00;;;;;;;19.08;6.20;;;;;;;11.75;59.68;99182.81;5096678;28;20467;-82
2021/06/14 00:08:26;;;;;;;20.55;6.35;;;;;;;11.75;60.24;99188.31;5099325;28;20048;-83
2021/06/14 00:10:54;;;;;;;19.20;6.20;;;;;;;11.76;60.31;99186.38;5094751;28;20103;-82
2021/06/14 00:13:21;;;;;;;18.73;6.20;;;;;;;11.75;59.51;99181.97;5092902;28;20036;-82
2021/06/14 00:15:48;;;;;;;17.95;6.05;;;;;;;11.76;59.85;99186.38;5093197;28;20173;-81
2021/06/14 00:18:15;;;;;;;19.77;6.60;;;;;;;11.75;59.94;99181.97;5092807;28;20032;-81
2021/06/14 00:20:44;;;;;;;22.45;6.90;;;;;;;11.73;59.64;99185.03;5074325;28;20024;-83
2021/06/14 00:23:10;;;;;;;22.40;6.45;;;;;;;11.75;60.01;99184.72;5090882;28;20487;-85
2021/06/14 00:25:37;;;;;;;21.23;7.10;;;;;;;11.72;59.69;99180.63;5090987;28;20547;-81
2021/06/14 00:28:03;;;;;;;20.55;7.25;;;;;;;11.72;60.19;99177.06;5089255;28;20035;-83
2021/06/14 00:30:32;;;;;;;17.80;5.97;;;;;;;11.70;60.08;99174.59;5091756;28;20078;-82
2021/06/14 00:32:57;;;;;;;16.73;6.32;;;;;;;11.69;60.03;99177.63;5092396;28;20038;-82
2021/06/14 00:35:23;;;;;;;20.25;6.72;;;;;;;11.70;60.49;99180.09;5089107;28;20023;-83
2021/06/14 00:37:49;;;;;;;17.45;6.20;;;;;;;11.72;60.02;99177.88;5092703;28;20023;-82
2021/06/14 00:40:14;;;;;;;13.73;5.13;;;;;;;11.68;60.56;99179.56;5093190;28;20028;-83
2021/06/14 00:42:40;;;;;;;19.58;6.05;;;;;;;11.65;60.24;99182.88;5091516;28;20039;-80
2021/06/14 00:45:09;;;;;;;19.20;5.80;;;;;;;11.63;59.71;99179.59;5089921;28;20024;-82
2021/06/14 00:47:35;;;;;;;12.02;5.45;;;;;;;11.65;60.76;99177.38;5090570;28;20024;-80
2021/06/14 00:50:01;;;;;;;13.38;5.68;;;;;;;11.67;59.94;99182.56;5088583;28;20039;-82
2021/06/14 00:52:27;;;;;;;14.40;5.30;;;;;;;11.69;60.10;99177.63;5091438;28;20097;-82
2021/06/14 00:54:52;;;;;;;16.42;6.40;;;;;;;11.73;60.06;99181.44;5091022;28;20051;-81
2021/06/14 00:57:17;;;;;;;13.98;5.55;;;;;;;11.74;60.32;99175.66;5091268;28;20056;-81
2021/06/14 00:59:43;;;;;;;15.25;5.72;;;;;;;11.74;60.47;99183.09;5092058;28;20029;-79
2021/06/14 01:02:09;;;;;;;16.40;6.95;;;;;;;11.72;59.74;99183.38;5092623;28;20063;-80
2021/06/14 01:04:34;;;;;;;18.63;6.55;;;;;;;11.69;60.24;99177.63;5072372;28;20465;-82
2021/06/14 01:06:59;;;;;;;16.70;5.75;;;;;;;11.67;60.46;99174.34;5090653;28;20036;-81
2021/06/14 01:09:25;;;;;;;20.70;7.15;;;;;;;11.64;59.93;99180.41;5090884;28;20032;-83
2021/06/14 01:11:57;;;;;;;18.02;6.70;;;;;;;11.60;60.03;99178.25;5091556;28;20028;-83
2021/06/14 01:14:40;;;;;;;20.30;6.53;;;;;;;11.54;60.41;99184.03;5105852;27;20036;-84
2021/06/14 01:17:09;;;;;;;15.57;6.00;;;;;;;11.50;60.16;99178.31;5090847;28;20032;-82
2021/06/14 01:19:56;;;;;;;14.60;6.00;;;;;;;11.45;59.97;99183.84;5090989;28;20035;-83
2021/06/14 01:22:59;;;;;;;18.35;6.90;;;;;;;11.38;60.19;99184.16;5070676;28;20074;-83
2021/06/14 01:25:46;;;;;;;16.60;6.25;;;;;;;11.36;59.65;99182.78;5090879;28;20032;-84
2021/06/14 01:28:13;;;;;;;17.38;6.18;;;;;;;11.34;60.43;99183.09;5090500;28;20738;-81
2021/06/14 01:30:39;;;;;;;18.00;6.32;;;;;;;11.32;60.10;99174.31;5071950;28;20035;-81
2021/06/14 01:33:09;;;;;;;15.00;6.38;;;;;;;11.34;60.42;99174.00;5091706;28;20059;-81
2021/06/14 01:35:40;;;;;;;18.55;7.25;;;;;;;11.36;60.92;99177.28;5089561;28;20028;-83
2021/06/14 01:38:08;;;;;;;15.13;6.70;;;;;;;11.37;60.35;99173.44;5092101;28;20039;-81
2021/06/14 01:40:34;;;;;;;17.75;7.20;;;;;;;11.34;60.54;99171.25;5090478;28;20024;-81
2021/06/14 01:43:04;;;;;;;21.30;7.22;;;;;;;11.31;61.19;99170.72;5091415;28;20032;-83
2021/06/14 01:45:32;;;;;;;17.65;6.75;;;;;;;11.26;60.94;99168.00;5092038;28;20028;-84
2021/06/14 01:47:59;;;;;;;16.63;6.97;;;;;;;11.20;60.54;99165.56;5089475;28;20708;-84
2021/06/14 01:50:29;;;;;;;17.35;6.90;;;;;;;11.20;61.30;99177.41;5090626;28;20101;-83
2021/06/14 01:52:57;;;;;;;20.55;7.30;;;;;;;11.13;61.53;99174.94;5090361;28;20043;-82
2021/06/14 01:55:25;;;;;;;17.80;6.80;;;;;;;11.14;61.08;99173.84;5088180;28;20128;-82
2021/06/14 01:57:52;;;;;;;19.38;7.30;;;;;;;11.13;61.23;99176.88;5090538;28;20174;-82
2021/06/14 02:00:20;;;;;;;20.85;8.02;;;;;;;11.15;61.06;99183.72;5090032;28;20380;-84
2021/06/14 02:02:47;;;;;;;20.73;7.25;;;;;;;11.18;61.25;99182.34;5090847;28;20031;-87
2021/06/14 02:05:13;;;;;;;16.70;7.55;;;;;;;11.21;61.07;99175.47;5089673;28;20020;-87
2021/06/14 02:07:41;;;;;;;16.75;7.72;;;;;;;11.25;61.51;99179.28;5089558;28;20032;-83
2021/06/14 02:10:08;;;;;;;18.95;7.50;;;;;;;11.23;61.23;99176.81;5088748;28;20082;-83
2021/06/14 02:12:38;;;;;;;16.25;7.38;;;;;;;11.20;61.46;99171.06;5089313;28;20024;-85
2021/06/14 02:15:04;;;;;;;20.45;7.85;;;;;;;11.22;61.38;99174.34;5089349;28;20055;-81
2021/06/14 02:17:31;;;;;;;23.50;8.10;;;;;;;11.21;61.43;99175.47;5089682;28;20041;-81
2021/06/14 02:19:57;;;;;;;18.75;7.00;;;;;;;11.16;61.13;99170.81;5089743;28;20551;-81
2021/06/14 02:22:23;;;;;;;17.38;7.38;;;;;;;11.12;61.01;99170.56;5088967;28;20054;-83
2021/06/14 02:24:49;;;;;;;19.17;7.30;;;;;;;11.08;61.31;99169.47;5089292;28;20476;-81
2021/06/14 02:27:16;;;;;;;24.95;8.23;;;;;;;11.07;61.26;99175.25;5089686;28;20032;-81
2021/06/14 02:29:41;;;;;;;18.27;6.53;;;;;;;11.06;61.19;99170.88;5089768;28;20032;-82
2021/06/14 02:32:08;;;;;;;16.55;6.97;;;;;;;11.03;61.55;99169.50;5089535;28;20027;-82
2021/06/14 02:34:35;;;;;;;19.15;7.82;;;;;;;10.98;61.73;99175.03;5086892;28;20028;-82
2021/06/14 02:37:02;;;;;;;19.92;7.40;;;;;;;10.92;61.59;99171.47;5088684;28;20046;-82
2021/06/14 02:39:30;;;;;;;18.17;7.88;;;;;;;10.89;60.69;99177.50;5089183;28;20028;-82
2021/06/14 02:41:57;;;;;;;20.13;7.35;;;;;;;10.85;61.38;99174.53;5089176;28;20089;-84
2021/06/14 02:44:24;;;;;;;16.10;6.65;;;;;;;10.81;61.69;99172.59;5088899;28;20032;-82
2021/06/14 02:46:50;;;;;;;17.95;6.78;;;;;;;10.80;61.83;99176.47;5088648;28;20059;-83
2021/06/14 02:49:16;;;;;;;18.85;6.90;;;;;;;10.78;61.41;99167.69;5089629;28;20066;-82
2021/06/14 02:51:44;;;;;;;19.08;6.63;;;;;;;10.79;61.21;99174.84;5089139;28;20048;-81
2021/06/14 02:54:17;;;;;;;16.20;7.18;;;;;;;10.77;62.50;99166.88;5088151;28;20024;-83
2021/06/14 02:56:43;;;;;;;22.55;8.68;;;;;;;10.77;61.76;99169.59;5088079;28;20469;-84
2021/06/14 02:59:12;;;;;;;18.10;7.65;;;;;;;10.80;61.65;99163.56;5087751;28;20074;-82
2021/06/14 03:01:39;;;;;;;17.10;6.68;;;;;;;10.82;62.59;99180.56;5087023;28;20070;-80
2021/06/14 03:04:05;;;;;;;18.83;8.13;;;;;;;10.82;62.29;99185.22;5087081;28;20365;-83
2021/06/14 03:06:32;;;;;;;22.45;7.90;;;;;;;10.79;62.34;99183.88;5086946;28;20038;-82
2021/06/14 03:08:59;;;;;;;24.55;9.25;;;;;;;10.79;62.12;99188.56;5089271;28;20036;-85
2021/06/14 03:11:27;;;;;;;18.33;8.63;;;;;;;10.80;62.28;99192.94;5088448;28;20483;-82
2021/06/14 03:13:53;;;;;;;19.90;7.78;;;;;;;10.84;62.25;99188.50;5088463;28;20093;-83
2021/06/14 03:16:23;;;;;;;21.13;8.40;;;;;;;10.86;61.50;99194.53;5087374;28;21068;-80
2021/06/14 03:18:49;;;;;;;19.20;8.05;;;;;;;10.91;61.89;99183.53;5089169;28;20031;-80
2021/06/14 03:21:15;;;;;;;19.33;7.40;;;;;;;10.98;62.56;99188.75;5088812;28;20025;-82
2021/06/14 03:23:40;;;;;;;19.27;7.88;;;;;;;11.01;62.13;99196.41;5088583;28;20062;-84
2021/06/14 03:26:11;;;;;;;18.70;7.38;;;;;;;11.06;62.18;99198.31;5088511;28;20083;-83
2021/06/14 03:28:43;;;;;;;21.75;8.38;;;;;;;11.11;61.93;99193.63;5089019;28;20040;-83
2021/06/14 03:31:10;;;;;;;17.02;7.57;;;;;;;11.12;62.51;99186.22;5087724;28;20106;-81
2021/06/14 03:33:35;;;;;;;25.63;7.90;;;;;;;11.13;62.50;99194.16;5088638;28;20094;-81
2021/06/14 03:36:01;;;;;;;19.38;7.75;;;;;;;11.09;62.19;99195.00;5088969;28;20111;-83
2021/06/14 03:38:27;;;;;;;22.48;8.52;;;;;;;11.06;62.29;99195.56;5070550;28;20111;-82
2021/06/14 03:40:52;;;;;;;21.73;7.68;;;;;;;11.06;62.55;99198.31;5070347;28;20031;-84
2021/06/14 03:43:18;;;;;;;21.13;7.80;;;;;;;11.09;62.33;99192.28;5088427;28;20031;-82
2021/06/14 03:45:44;;;;;;;18.08;7.47;;;;;;;11.17;63.05;99197.97;5072536;28;20035;-83
2021/06/14 03:48:10;;;;;;;26.17;8.10;;;;;;;11.22;61.94;99196.31;5091129;28;20085;-84
2021/06/14 03:50:35;;;;;;;15.63;7.10;;;;;;;11.23;62.10;99192.47;5092506;28;20078;-85
2021/06/14 03:53:02;;;;;;;19.13;7.22;;;;;;;11.26;62.38;99192.72;5092743;28;20206;-82
2021/06/14 03:55:28;;;;;;;15.35;6.60;;;;;;;11.31;62.43;99189.94;5091448;28;20023;-81
2021/06/14 03:57:53;;;;;;;19.13;7.35;;;;;;;11.36;62.02;99204.75;5073820;28;20081;-80
2021/06/14 04:00:19;;;;;;;24.20;8.10;;;;;;;11.41;62.43;99205.53;5091969;28;20020;-83
2021/06/14 04:02:44;;;;;;;17.60;6.72;;;;;;;11.44;62.02;99195.94;5091453;28;20016;-85
2021/06/14 04:05:11;;;;;;;19.90;7.70;;;;;;;11.47;62.53;99204.41;5091693;28;20398;-86
2021/06/14 04:07:36;;;;;;;17.58;7.90;;;;;;;11.52;62.46;99200.81;5091927;28;20031;-90
2021/06/14 04:10:03;;;;;;;21.17;7.55;;;;;;;11.51;62.35;99204.69;5091878;28;20028;-81
2021/06/14 04:12:30;;;;;;;17.48;6.30;;;;;;;11.53;62.45;99205.22;5091399;28;20480;-81
2021/06/14 04:14:55;;;;;;;18.80;6.88;;;;;;;11.54;62.54;99206.03;5091065;28;20119;-80
2021/06/14 04:17:21;;;;;;;21.92;10.40;;;;;;;11.54;62.55;99201.38;5094120;28;20429;-78
2021/06/14 04:19:46;;;;;;;21.83;7.85;;;;;;;11.56;62.65;99199.16;5091071;28;20028;-88
2021/06/14 04:22:12;;;;;;;23.00;8.77;;;;;;;11.59;62.56;99204.09;5092520;28;20031;-90
2021/06/14 04:24:37;;;;;;;17.20;6.97;;;;;;;11.61;63.08;99207.34;5092773;28;20483;-88
2021/06/14 04:27:03;;;;;;;18.10;8.20;;;;;;;11.64;62.66;99205.13;5093660;28;20046;-88
2021/06/14 04:29:29;;;;;;;18.58;8.00;;;;;;;11.67;62.66;99202.66;5092797;28;20431;-81
2021/06/14 04:31:56;;;;;;;14.93;6.70;;;;;;;11.70;62.90;99201.25;5092183;28;20060;-89
2021/06/14 04:34:21;;;;;;;23.55;7.80;;;;;;;11.72;62.48;99202.63;5074630;28;20020;-85
2021/06/14 04:36:46;;;;;;;24.38;9.43;;;;;;;11.77;62.44;99199.00;5092803;28;20062;-82
2021/06/14 04:39:12;;;;;;;21.05;10.35;;;;;;;11.82;62.48;99193.47;5092563;28;20030;-83
2021/06/14 04:41:37;;;;;;;25.35;8.25;;;;;;;11.86;63.03;99196.44;5091991;28;20426;-83
2021/06/14 04:44:03;;;;;;;13.98;5.85;;;;;;;11.91;63.36;99202.75;5093278;28;20035;-82
2021/06/14 04:46:28;;;;;;;21.92;8.55;;;;;;;11.93;63.21;99201.66;5093437;28;20036;-83
2021/06/14 04:48:54;;;;;;;24.15;8.43;;;;;;;11.96;62.76;99203.81;5093926;28;20035;-84
2021/06/14 04:51:19;;;;;;;22.58;8.95;;;;;;;12.00;62.99;99208.47;5093707;28;20052;-82
2021/06/14 04:53:45;;;;;;;15.68;6.57;;;;;;;12.04;63.44;99209.53;5092481;28;20027;-81
2021/06/14 04:56:10;;;;;;;23.10;9.43;;;;;;;12.08;62.85;99212.53;5075840;28;20372;-81
2021/06/14 04:58:36;;;;;;;32.83;9.23;;;;;;;12.11;62.87;99206.47;5094474;28;20024;-82
2021/06/14 05:01:03;;;;;;;22.38;8.77;;;;;;;12.16;63.50;99205.63;5092891;28;20020;-82
2021/06/14 05:03:29;;;;;;;22.25;8.52;;;;;;;12.19;63.78;99205.03;5074320;28;20107;-82
2021/06/14 05:05:54;;;;;;;25.13;8.93;;;;;;;12.24;63.30;99198.66;5092753;28;20119;-84
2021/06/14 05:08:20;;;;;;;21.00;7.85;;;;;;;12.28;63.27;99205.22;5092994;28;20027;-82
2021/06/14 05:10:46;;;;;;;15.48;7.40;;;;;;;12.32;63.23;99198.03;5092521;28;20465;-80
2021/06/14 05:13:11;;;;;;;17.13;7.40;;;;;;;12.36;62.82;99202.66;5092161;28;20040;-82
2021/06/14 05:15:37;;;;;;;24.13;8.38;;;;;;;12.39;63.04;99201.28;5092657;28;20034;-81
2021/06/14 05:18:03;;;;;;;21.13;7.15;;;;;;;12.47;63.29;99197.88;5092519;28;20402;-82
2021/06/14 05:20:30;;;;;;;23.20;8.15;;;;;;;12.51;62.85;99198.13;5092526;28;20028;-82
2021/06/14 05:22:56;;;;;;;19.33;8.27;;;;;;;12.56;63.11;99200.81;5092627;28;20028;-80
2021/06/14 05:25:23;;;;;;;28.67;8.30;;;;;;;12.62;63.14;99198.84;5091991;28;20020;-82
2021/06/14 05:27:48;;;;;;;19.88;6.50;;;;;;;12.68;63.13;99194.09;5071791;28;20122;-83
2021/06/14 05:30:14;;;;;;;20.23;7.07;;;;;;;12.70;62.84;99197.38;5092424;28;20023;-81
2021/06/14 05:32:39;;;;;;;20.95;6.72;;;;;;;12.73;63.23;99199.53;5092967;28;20040;-81
2021/06/14 05:35:08;;;;;;;16.50;7.40;;;;;;;12.80;62.56;99200.84;5092637;28;20039;-81
2021/06/14 05:37:34;;;;;;;17.38;6.90;;;;;;;12.86;63.01;99203.50;5092148;28;20016;-82
2021/06/14 05:40:00;;;;;;;15.35;6.35;;;;;;;12.90;62.77;99204.56;5092719;28;20068;-80
2021/06/14 05:42:25;;;;;;;18.25;7.50;;;;;;;12.98;62.94;99203.13;5093583;28;20035;-81
2021/06/14 05:44:50;;;;;;;18.90;7.15;;;;;;;13.06;63.26;99200.53;5092348;28;20028;-81
2021/06/14 05:47:16;;;;;;;18.95;6.22;;;;;;;13.11;63.06;99199.63;5092770;28;20032;-82
2021/06/14 05:49:42;;;;;;;18.08;7.20;;;;;;;13.16;62.40;99204.28;5094734;28;20036;-81
2021/06/14 05:52:07;;;;;;;21.52;7.40;;;;;;;13.21;62.60;99199.50;5098712;28;20071;-80
2021/06/14 05:54:33;;;;;;;18.42;7.20;;;;;;;13.28;62.68;99196.38;5092153;28;20122;-81
2021/06/14 05:56:58;;;;;;;16.10;7.28;;;;;;;13.32;62.46;99193.88;5092225;28;20055;-82
2021/06/14 05:59:24;;;;;;;24.70;8.45;;;;;;;13.35;62.72;99188.56;5094919;28;20027;-80
2021/06/14 06:01:49;;;;;;;16.13;7.47;;;;;;;13.38;62.45;99193.50;5097319;28;20024;-82
2021/06/14 06:04:16;;;;;;;17.08;6.82;;;;;;;13.47;62.57;99190.91;5078122;28;20103;-82
2021/06/14 06:06:42;;;;;;;16.77;6.32;;;;;;;13.55;62.56;99198.50;5092141;28;20050;-81
2021/06/14 06:09:07;;;;;;;18.38;6.97;;;;;;;13.60;62.15;99194.03;5074065;28;20028;-81
2021/06/14 06:11:33;;;;;;;19.73;7.13;;;;;;;13.63;62.36;99191.53;5091530;28;20490;-81
2021/06/14 06:13:58;;;;;;;20.45;7.57;;;;;;;13.73;62.40;99193.31;5092707;28;20034;-79
2021/06/14 06:16:24;;;;;;;20.75;6.82;;;;;;;13.84;62.33;99205.00;5092610;28;20016;-82
2021/06/14 06:18:49;;;;;;;16.10;6.40;;;;;;;13.90;61.96;99197.44;5092313;28;20035;-82
2021/06/14 06:21:15;;;;;;;17.88;6.75;;;;;;;13.94;62.04;99193.81;5091542;28;20020;-81
2021/06/14 06:23:41;;;;;;;16.73;6.22;;;;;;;13.99;61.97;99195.66;5091241;28;20481;-82
2021/06/14 06:26:06;;;;;;;17.98;7.05;;;;;;;14.05;61.77;99196.41;5091506;28;20040;-79
2021/06/14 06:28:31;;;;;;;18.33;7.15;;;;;;;14.10;61.86;99194.38;5091217;28;20634;-79
2021/06/14 06:30:57;;;;;;;15.20;6.43;;;;;;;14.18;61.74;99203.06;5092029;28;20024;-81
2021/06/14 06:33:23;;;;;;;18.92;7.40;;;;;;;14.23;61.43;99198.28;5091549;28;20039;-79
2021/06/14 06:35:48;;;;;;;22.58;7.90;;;;;;;14.28;61.16;99200.13;5093109;28;20027;-81
2021/06/14 06:38:13;;;;;;;21.23;7.45;;;;;;;14.35;61.34;99202.50;5092444;28;20484;-83
2021/06/14 06:40:39;;;;;;;16.80;6.57;;;;;;;14.40;61.30;99197.69;5091560;28;20017;-81
2021/06/14 06:43:04;;;;;;;18.50;6.43;;;;;;;14.42;60.89;99197.41;5091295;28;20380;-83
2021/06/14 06:45:30;;;;;;;18.10;6.07;;;;;;;14.40;60.83;99191.38;5091173;28;20028;-82
2021/06/14 06:47:55;;;;;;;18.35;6.38;;;;;;;14.42;60.99;99197.41;5091609;28;20074;-81
2021/06/14 06:50:24;;;;;;;16.92;6.85;;;;;;;14.47;60.90;99199.25;5085142;28;20024;-81
2021/06/14 06:52:49;;;;;;;16.13;6.43;;;;;;;14.49;60.56;99200.56;5089709;28;20032;-86
2021/06/14 06:55:16;;;;;;;25.23;8.30;;;;;;;14.54;60.68;99196.91;5092404;28;20062;-81
2021/06/14 06:57:42;;;;;;;15.80;6.70;;;;;;;14.59;60.61;99194.06;5089789;28;20020;-83
2021/06/14 07:00:15;;;;;;;19.20;6.93;;;;;;;14.61;60.23;99186.28;5090184;28;20480;-85
2021/06/14 07:02:41;;;;;;;14.18;5.97;;;;;;;14.66;60.45;99194.47;5089796;28;20020;-78
2021/06/14 07:05:07;;;;;;;27.75;8.60;;;;;;;14.70;60.29;99195.50;5089230;28;21723;-80
2021/06/14 07:07:32;;;;;;;22.48;8.23;;;;;;;14.78;60.43;99176.59;5091253;28;20028;-83
2021/06/14 07:09:59;;;;;;;19.60;7.72;;;;;;;14.81;59.91;99176.00;5089535;28;20029;-83
2021/06/14 07:12:24;;;;;;;17.05;6.82;;;;;;;14.83;59.92;99173.75;5090049;28;20503;-81
2021/06/14 07:14:50;;;;;;;15.20;5.80;;;;;;;14.85;60.22;99175.09;5088495;28;20032;-88
2021/06/14 07:17:16;;;;;;;19.00;6.80;;;;;;;14.91;59.75;99175.78;5071411;28;20107;-81
2021/06/14 07:19:41;;;;;;;16.98;7.18;;;;;;;14.95;59.32;99184.28;5090881;28;20028;-82
2021/06/14 07:22:06;;;;;;;14.88;6.18;;;;;;;15.02;59.45;99173.63;5092978;28;20061;-85
2021/06/14 07:24:32;;;;;;;21.77;7.60;;;;;;;15.13;59.62;99183.34;5093626;28;20486;-81
2021/06/14 07:26:57;;;;;;;15.77;5.90;;;;;;;15.20;59.55;99184.88;5093665;28;20028;-81
2021/06/14 07:29:23;;;;;;;22.88;7.18;;;;;;;15.28;59.44;99181.38;5093204;28;20388;-81
2021/06/14 07:31:48;;;;;;;18.10;6.97;;;;;;;15.35;59.41;99180.97;5093269;28;20099;-80
2021/06/14 07:34:13;;;;;;;18.58;6.88;;;;;;;15.43;59.03;99175.50;5086479;28;20023;-75
2021/06/14 07:36:39;;;;;;;17.73;6.20;;;;;;;15.54;58.69;99189.91;5093162;28;20073;-78
2021/06/14 07:39:05;;;;;;;16.83;6.07;;;;;;;15.61;58.96;99182.00;5094385;28;20027;-89
2021/06/14 07:41:31;;;;;;;19.02;6.35;;;;;;;15.70;58.52;99184.84;5092809;28;21687;-75
2021/06/14 07:43:57;;;;;;;20.60;6.68;;;;;;;15.75;58.54;99167.31;5093787;28;20169;-79
2021/06/14 07:46:22;;;;;;;16.33;6.50;;;;;;;15.82;58.46;99167.72;5092015;28;20114;-75
2021/06/14 07:48:48;;;;;;;18.45;6.40;;;;;;;15.91;57.97;99173.31;5097979;28;20036;-75
2021/06/14 07:51:13;;;;;;;25.83;6.80;;;;;;;15.97;57.67;99180.38;5075738;28;20075;-76
2021/06/14 07:53:39;;;;;;;19.55;5.93;;;;;;;16.02;57.14;99166.41;5095143;28;20032;-77
2021/06/14 07:56:06;;;;;;;17.23;5.60;;;;;;;16.07;56.84;99166.28;5092114;28;20028;-75
2021/06/14 07:58:33;;;;;;;17.08;6.43;;;;;;;16.09;56.83;99167.91;5093599;28;20093;-75
2021/06/14 08:01:00;;;;;;;15.95;6.22;;;;;;;16.11;56.52;99179.47;5092703;28;20024;-79
2021/06/14 08:03:26;;;;;;;14.38;5.63;;;;;;;16.14;56.05;99171.38;5093490;28;20051;-77
2021/06/14 08:05:52;;;;;;;19.50;5.93;;;;;;;16.21;56.20;99181.97;5094727;28;20484;-79
2021/06/14 08:08:18;;;;;;;16.75;6.60;;;;;;;16.24;54.96;99181.34;5091125;28;20097;-76
2021/06/14 08:10:45;;;;;;;16.05;6.38;;;;;;;16.24;54.35;99181.34;5097411;28;20038;-76
2021/06/14 08:13:11;;;;;;;16.13;6.10;;;;;;;16.22;55.10;99178.06;5091911;28;20125;-76
2021/06/14 08:15:38;;;;;;;16.42;6.82;;;;;;;16.19;54.58;99176.78;5094283;28;20059;-75
2021/06/14 08:18:33;;;;;;;17.50;6.78;;;;;;;16.22;55.31;99175.31;5091195;28;20118;-73
2021/06/14 08:26:14;;;;;;;14.80;5.63;;;;;;;16.20;53.66;99180.34;5086225;28;20612;-74
2021/06/14 08:28:41;;;;;;;18.58;7.70;;;;;;;16.26;54.29;99172.75;5091391;28;20036;-74
2021/06/14 08:31:06;;;;;;;23.92;7.15;;;;;;;16.33;53.88;99173.09;5091012;28;20027;-75
2021/06/14 08:33:32;;;;;;;21.05;6.68;;;;;;;16.38;53.51;99167.41;5087586;28;20035;-76
2021/06/14 08:35:58;;;;;;;18.23;5.85;;;;;;;16.42;53.40;99162.06;5089673;28;20025;-76
2021/06/14 08:38:23;;;;;;;10.27;5.80;;;;;;;16.51;53.16;99174.81;5090390;28;20808;-76
2021/06/14 08:40:48;;;;;;;12.60;5.65;;;;;;;16.58;53.19;99165.25;5092568;28;20492;-75
2021/06/14 08:43:14;;;;;;;14.73;6.70;;;;;;;16.60;52.55;99158.25;5089305;28;20106;-75
2021/06/14 08:45:41;;;;;;;15.52;5.60;;;;;;;16.65;52.97;99162.84;5089729;28;20035;-76
2021/06/14 08:48:10;;;;;;;14.65;6.15;;;;;;;16.75;52.39;99167.25;5090439;28;20032;-74
2021/06/14 08:50:37;;;;;;;16.13;6.10;;;;;;;16.82;52.38;99162.06;5090320;28;20040;-73
2021/06/14 08:53:03;;;;;;;17.13;8.32;;;;;;;16.92;51.92;99169.28;5091212;28;20028;-75
2021/06/14 08:55:28;;;;;;;16.88;6.50;;;;;;;16.99;52.32;99166.88;5090790;28;20080;-75
2021/06/14 08:57:53;;;;;;;14.18;5.55;;;;;;;17.08;51.87;99164.13;5090624;28;20126;-76
2021/06/14 09:00:25;;;;;;;18.70;6.15;;;;;;;17.15;51.32;99158.94;5091198;28;20469;-75
2021/06/14 09:02:51;;;;;;;16.40;6.28;;;;;;;17.23;51.77;99162.84;5092339;28;20020;-76
2021/06/14 09:05:22;;;;;;;15.85;6.13;;;;;;;17.30;51.83;99165.16;5091512;28;20125;-75
2021/06/14 09:07:49;;;;;;;19.45;7.35;;;;;;;17.34;51.00;99169.72;5092513;28;20039;-76
2021/06/14 09:10:21;;;;;;;16.23;5.45;;;;;;;17.40;51.27;99173.16;5074240;28;20023;-73
2021/06/14 09:12:47;;;;;;;13.07;5.28;;;;;;;17.44;50.96;99171.34;5089734;28;20044;-72
2021/06/14 09:15:13;;;;;;;13.48;5.80;;;;;;;17.49;50.64;99165.66;5090705;28;20020;-75
2021/06/14 09:17:39;;;;;;;15.00;5.93;;;;;;;17.52;50.28;99175.28;5092725;28;20030;-75
2021/06/14 09:20:13;;;;;;;18.05;5.47;;;;;;;17.51;50.38;99168.13;5085716;28;20110;-76
2021/06/14 09:22:39;;;;;;;19.65;6.03;;;;;;;17.53;50.02;99171.34;5091524;28;20050;-76
2021/06/14 09:25:09;;;;;;;15.90;5.90;;;;;;;17.58;50.27;99175.94;5090444;28;20471;-76
2021/06/14 09:27:39;;;;;;;16.45;5.95;;;;;;;17.62;50.04;99177.72;5092846;28;20030;-79
2021/06/14 09:30:12;;;;;;;12.77;5.25;;;;;;;17.65;50.21;99176.28;5093446;28;20051;-75
2021/06/14 09:32:58;;;;;;;14.88;4.90;;;;;;;17.70;49.89;99176.13;5075160;28;20028;-77
2021/06/14 09:35:36;;;;;;;10.60;4.40;;;;;;;17.76;49.95;99165.66;5077305;28;20020;-74
2021/06/14 09:38:13;;;;;;;14.15;5.05;;;;;;;17.89;50.41;99169.41;5088671;28;20031;-76
2021/06/14 09:40:42;;;;;;;13.43;5.30;;;;;;;17.97;49.70;99163.84;5072803;28;20391;-76
2021/06/14 09:43:20;;;;;;;15.02;5.35;;;;;;;18.09;49.53;99170.72;5088632;28;20027;-76
2021/06/14 09:45:46;;;;;;;11.65;5.90;;;;;;;18.12;49.05;99165.34;5091059;28;20115;-74
2021/06/14 09:48:22;;;;;;;11.88;5.50;;;;;;;18.15;49.05;99166.63;5089675;28;20465;-76
2021/06/14 09:50:51;;;;;;;11.73;4.93;;;;;;;18.20;49.06;99169.22;5073644;28;20048;-78
2021/06/14 09:53:20;;;;;;;15.00;5.30;;;;;;;18.24;48.54;99163.81;5089396;28;20028;-76
2021/06/14 09:55:48;;;;;;;22.00;6.25;;;;;;;18.27;48.36;99163.16;5089857;28;20083;-77
2021/06/14 09:58:22;;;;;;;16.45;5.95;;;;;;;18.32;48.61;99153.84;5089262;28;20032;-74
2021/06/14 10:00:53;;;;;;;14.40;5.72;;;;;;;18.42;48.78;99157.09;5090279;28;20030;-75
2021/06/14 10:03:19;;;;;;;11.18;5.10;;;;;;;18.52;48.40;99153.13;5088316;28;20027;-78
2021/06/14 10:05:50;;;;;;;13.57;4.40;;;;;;;18.57;48.12;99160.44;5091575;28;20031;-76
2021/06/14 10:08:31;;;;;;;12.40;4.65;;;;;;;18.57;47.92;99149.34;5090149;28;20024;-75
2021/06/14 10:11:06;;;;;;;13.57;5.25;;;;;;;18.60;47.66;99149.50;5089808;28;20452;-75
2021/06/14 10:13:33;;;;;;;14.32;5.22;;;;;;;18.61;47.37;99150.28;5090760;28;20496;-74
2021/06/14 10:16:00;;;;;;;13.68;5.78;;;;;;;18.67;47.66;99139.84;5087915;28;20056;-76
2021/06/14 10:18:34;;;;;;;13.02;5.80;;;;;;;18.75;48.02;99144.50;5090705;28;20028;-75
2021/06/14 10:21:01;;;;;;;13.18;5.47;;;;;;;18.83;47.77;99145.63;5085195;28;20031;-78
2021/06/14 10:23:26;;;;;;;12.68;5.13;;;;;;;18.93;47.68;99139.69;5071698;28;20032;-76
2021/06/14 10:25:52;;;;;;;14.18;6.72;;;;;;;19.01;47.62;99140.81;5072500;28;20039;-77
2021/06/14 10:28:18;;;;;;;13.07;5.32;;;;;;;19.14;47.67;99137.00;5090245;28;20042;-76
2021/06/14 10:30:43;;;;;;;13.13;5.60;;;;;;;19.23;46.25;99136.94;5091589;28;20032;-75
2021/06/14 10:33:09;;;;;;;10.23;4.82;;;;;;;19.25;46.42;99131.84;5091223;28;20551;-76
2021/06/14 10:35:35;;;;;;;12.35;5.80;;;;;;;19.26;46.84;99129.84;5090790;28;20080;-76
2021/06/14 10:38:03;;;;;;;11.75;4.70;;;;;;;19.32;46.74;99123.78;5091434;28;20027;-76
2021/06/14 10:40:29;;;;;;;12.63;5.32;;;;;;;19.40;46.21;99122.06;5089995;28;20028;-75
2021/06/14 10:42:56;;;;;;;11.25;4.78;;;;;;;19.42;45.99;99116.16;5090727;28;20085;-78
2021/06/14 10:45:26;;;;;;;10.32;4.70;;;;;;;19.45;45.51;99126.59;5089815;28;20081;-78
2021/06/14 10:47:53;;;;;;;12.00;5.10;;;;;;;19.51;45.95;99130.00;5091981;28;20036;-77
2021/06/14 10:50:25;;;;;;;14.05;5.07;;;;;;;19.53;45.94;99128.50;5091013;28;20059;-78
2021/06/14 10:52:51;;;;;;;16.85;5.88;;;;;;;19.59;46.10;99124.38;5075976;28;20031;-77
2021/06/14 10:55:19;;;;;;;12.25;5.50;;;;;;;19.68;46.19;99121.50;5095212;28;20547;-76
2021/06/14 10:57:45;;;;;;;13.55;5.90;;;;;;;19.76;45.36;99130.94;5093279;28;20035;-76
2021/06/14 11:00:34;;;;;;;16.98;6.72;;;;;;;19.72;45.35;99121.66;5092519;28;20031;-76
2021/06/14 11:03:01;;;;;;;13.85;5.43;;;;;;;19.74;45.54;99120.13;5093046;28;20032;-75
2021/06/14 11:05:34;;;;;;;13.85;5.57;;;;;;;19.79;45.38;99111.59;5092757;28;21416;-77
2021/06/14 11:08:12;;;;;;;11.95;4.93;;;;;;;19.88;45.63;99100.38;5093273;28;20028;-75
2021/06/14 11:10:37;;;;;;;11.93;5.65;;;;;;;19.98;45.28;99098.34;5093087;28;20036;-75
2021/06/14 11:13:12;;;;;;;11.90;5.38;;;;;;;20.02;45.47;99104.84;5074501;28;20023;-77
2021/06/14 11:15:40;;;;;;;13.00;5.32;;;;;;;20.12;45.10;99103.59;5091379;28;20047;-73
2021/06/14 11:18:06;;;;;;;13.07;5.10;;;;;;;20.18;44.97;99093.84;5092972;28;20054;-74
2021/06/14 11:20:37;;;;;;;12.27;4.97;;;;;;;20.21;44.75;99085.59;5096408;28;20468;-74
2021/06/14 11:23:05;;;;;;;11.98;5.68;;;;;;;20.27;44.52;99090.97;5095979;28;20020;-73
2021/06/14 11:25:41;;;;;;;10.90;4.60;;;;;;;20.29;44.44;99083.06;5095672;28;20028;-73
2021/06/14 11:28:10;;;;;;;12.52;5.40;;;;;;;20.33;43.72;99081.22;5087995;28;20070;-76
2021/06/14 11:30:46;;;;;;;11.77;5.38;;;;;;;20.36;43.33;99078.56;5092122;28;20035;-74